Archival Weather

Aeroparque Jorge Newbery

Buenos Aires, Argentina (SABE)

Report from: Thursday, September 21, 2023 4:17 AM -03
Current time: Friday, July 19, 2024 12:03 AM -03

Current weather – Weather history – Daily summaries
Weather forecast

Present weatherFog
Temperature16.0°C (60.8°F)
Dew point16.0°C (60.8°F)
Winds 3 kts (1.5 m/s, 3.5 mph) East (80°)
Visibility2296.6 ft. (700 m)
Clouds Ceiling: Overcast 200 ft. (61 m)
Altimeter29.83 in.Hg (1010 mB)
Relative humidity100 %
Density altitude478 ft. (146 m)
Remarks No significant changes expected in the next two hours
Special weather observation
Flight conditions Low Instrument Meteorological Conditions
Raw dataSPAG31 KWBC 210718 SPECI SABE 210717Z 08003KT 0700 R13/P2000N FG OVC002 16/16 Q1010 NOSIG RMK PP000
An error has occurred. This application may no longer respond until reloaded. Reload 🗙